createdAt,value
2022-09-12T00:02:18.725Z,14.65
2022-09-12T00:05:20.534Z,14.69
2022-09-12T00:08:22.114Z,14.59
2022-09-12T00:11:26.218Z,14.73
2022-09-12T00:14:27.775Z,14.63
2022-09-12T00:17:29.374Z,14.63
2022-09-12T00:20:30.912Z,14.49
2022-09-12T00:23:32.996Z,14.54
2022-09-12T00:26:35.927Z,14.48
2022-09-12T00:29:37.575Z,14.39
2022-09-12T00:32:39.147Z,14.48
2022-09-12T00:35:42.122Z,14.45
2022-09-12T00:38:45.338Z,14.39
2022-09-12T00:41:48.466Z,14.17
2022-09-12T00:44:52.273Z,14.17
2022-09-12T00:47:54.857Z,14.15
2022-09-12T00:50:56.541Z,13.95
2022-09-12T00:53:59.988Z,14.06
2022-09-12T00:57:06.605Z,14.05
2022-09-12T01:00:17.107Z,14.07
2022-09-12T01:03:22.233Z,13.97
2022-09-12T01:06:27.033Z,14.00
2022-09-12T01:09:28.621Z,13.99
2022-09-12T01:12:33.029Z,14.06
2022-09-12T01:15:37.063Z,13.94
2022-09-12T01:18:54.722Z,13.80
2022-09-12T01:22:13.712Z,13.88
2022-09-12T01:25:26.451Z,13.87
2022-09-12T01:28:45.741Z,13.92
2022-09-12T01:31:56.294Z,13.87
2022-09-12T01:35:07.106Z,13.88
2022-09-12T01:38:11.720Z,13.91
2022-09-12T01:41:24.400Z,13.80
2022-09-12T01:44:35.271Z,13.71
2022-09-12T01:47:44.460Z,13.65
2022-09-12T01:50:52.346Z,13.77
2022-09-12T01:53:59.758Z,13.72
2022-09-12T01:57:07.397Z,13.64
2022-09-12T02:00:12.897Z,13.52
2022-09-12T02:03:24.327Z,13.57
2022-09-12T02:06:30.997Z,13.67
2022-09-12T02:09:36.450Z,13.81
2022-09-12T02:12:44.746Z,13.70
2022-09-12T02:15:52.576Z,13.64
2022-09-12T02:18:59.663Z,13.65
2022-09-12T02:22:04.305Z,13.65
2022-09-12T02:25:10.384Z,13.81
2022-09-12T02:28:16.181Z,13.80
2022-09-12T02:31:24.445Z,13.74
2022-09-12T02:34:42.054Z,13.84
2022-09-12T02:37:56.035Z,13.95
2022-09-12T02:40:57.917Z,13.92
2022-09-12T02:43:59.624Z,13.97
2022-09-12T02:47:06.006Z,13.90
2022-09-12T02:50:10.069Z,13.95
2022-09-12T02:53:11.881Z,13.89
2022-09-12T02:56:23.523Z,13.89
2022-09-12T02:59:25.854Z,13.75
2022-09-12T03:02:35.979Z,13.74
2022-09-12T03:05:47.153Z,13.75
2022-09-12T03:09:01.353Z,13.74
2022-09-12T03:12:11.711Z,13.64
2022-09-12T03:15:28.329Z,13.56
2022-09-12T03:18:43.550Z,13.58
2022-09-12T03:21:52.989Z,13.56
2022-09-12T03:25:03.449Z,13.48
2022-09-12T03:28:08.148Z,13.44
2022-09-12T03:31:13.623Z,13.44
2022-09-12T03:34:15.248Z,13.57
2022-09-12T03:37:18.261Z,13.55
2022-09-12T03:40:20.273Z,13.53
2022-09-12T03:43:22.133Z,13.37
2022-09-12T03:46:23.724Z,13.41
2022-09-12T03:49:25.395Z,13.37
2022-09-12T03:52:28.475Z,13.41
2022-09-12T03:55:31.013Z,13.42
2022-09-12T03:58:33.774Z,13.25
2022-09-12T04:01:35.401Z,13.30
2022-09-12T04:04:37.011Z,13.24
2022-09-12T04:07:40.068Z,13.28
2022-09-12T04:10:41.724Z,13.21
2022-09-12T04:13:45.179Z,13.27
2022-09-12T04:16:46.972Z,13.26
2022-09-12T04:19:48.636Z,13.28
2022-09-12T04:22:51.601Z,13.18
2022-09-12T04:25:54.344Z,13.14
2022-09-12T04:28:57.567Z,13.14
2022-09-12T04:31:59.366Z,13.25
2022-09-12T04:35:00.955Z,13.24
2022-09-12T04:38:03.897Z,13.02
2022-09-12T04:41:12.210Z,12.94
2022-09-12T04:44:15.333Z,12.85
2022-09-12T04:47:17.019Z,12.94
2022-09-12T04:50:18.817Z,13.02
2022-09-12T04:53:21.818Z,12.97
2022-09-12T04:56:23.670Z,13.05
2022-09-12T04:59:25.310Z,13.05
2022-09-12T05:02:27.148Z,13.01
2022-09-12T05:05:28.792Z,12.91
2022-09-12T05:08:31.803Z,12.94
2022-09-12T05:14:57.934Z,13.01
2022-09-12T05:17:59.566Z,13.00
2022-09-12T05:21:02.719Z,13.06
2022-09-12T05:24:06.623Z,12.98
2022-09-12T05:27:08.280Z,12.97
2022-09-12T05:30:11.589Z,12.98
2022-09-12T05:33:13.410Z,12.96
2022-09-12T05:36:17.790Z,13.05
2022-09-12T05:39:20.788Z,12.97
2022-09-12T05:42:23.402Z,13.12
2022-09-12T05:45:26.999Z,13.10
2022-09-12T05:48:28.984Z,13.03
2022-09-12T05:51:34.059Z,13.16
2022-09-12T05:54:37.094Z,13.25
2022-09-12T05:57:39.356Z,13.18
2022-09-12T06:00:41.039Z,13.12
2022-09-12T06:03:44.623Z,13.17
2022-09-12T06:06:46.679Z,13.26
2022-09-12T06:09:49.967Z,13.10
2022-09-12T06:12:51.682Z,13.27
2022-09-12T06:15:54.119Z,13.32
2022-09-12T06:18:57.800Z,13.31
2022-09-12T06:21:59.388Z,13.32
2022-09-12T06:25:02.999Z,13.48
2022-09-12T06:28:04.652Z,13.57
2022-09-12T06:31:08.221Z,13.59
2022-09-12T06:34:12.444Z,13.46
2022-09-12T06:37:14.508Z,13.46
2022-09-12T06:40:18.003Z,13.72
2022-09-12T06:43:19.914Z,13.85
2022-09-12T06:46:23.788Z,13.84
2022-09-12T06:49:25.498Z,14.01
2022-09-12T06:52:29.061Z,14.16
2022-09-12T06:55:32.035Z,14.32
2022-09-12T06:58:34.507Z,14.58
2022-09-12T07:01:36.222Z,14.58
2022-09-12T07:04:37.843Z,14.73
2022-09-12T07:07:39.517Z,14.77
2022-09-12T07:10:42.507Z,14.78
2022-09-12T07:13:47.551Z,14.86
2022-09-12T07:16:49.280Z,14.97
2022-09-12T07:19:50.897Z,15.15
2022-09-12T07:22:52.557Z,15.30
2022-09-12T07:25:57.095Z,15.51
2022-09-12T07:29:18.588Z,15.65
2022-09-12T07:32:20.896Z,15.84
2022-09-12T07:35:22.522Z,16.01
2022-09-12T07:38:24.172Z,16.25
2022-09-12T07:41:29.231Z,16.47
2022-09-12T07:44:30.899Z,16.77
2022-09-12T07:47:32.591Z,16.84
2022-09-12T07:50:34.798Z,16.90
2022-09-12T07:53:38.434Z,16.92
2022-09-12T07:56:41.693Z,16.91
2022-09-12T07:59:53.050Z,17.06
2022-09-12T08:02:55.107Z,17.01
2022-09-12T08:06:03.218Z,17.12
2022-09-12T08:09:05.475Z,17.13
2022-09-12T08:12:08.578Z,17.26
2022-09-12T08:15:10.711Z,17.46
2022-09-12T08:18:12.494Z,17.48
2022-09-12T08:21:16.827Z,17.60
2022-09-12T08:24:18.557Z,17.63
2022-09-12T08:27:21.505Z,17.78
2022-09-12T08:30:23.152Z,17.83
2022-09-12T08:33:27.294Z,17.83
2022-09-12T08:36:29.531Z,17.94
2022-09-12T08:39:33.180Z,17.93
2022-09-12T08:42:50.495Z,17.95
2022-09-12T08:46:00.735Z,18.01
2022-09-12T08:49:04.248Z,18.06
2022-09-12T08:52:10.510Z,18.27
2022-09-12T08:55:27.476Z,18.36
2022-09-12T08:58:39.432Z,18.59
2022-09-12T09:01:43.429Z,18.73
2022-09-12T09:04:51.583Z,18.87
2022-09-12T09:08:21.038Z,18.99
2022-09-12T09:11:37.543Z,18.89
2022-09-12T09:14:56.300Z,19.04
2022-09-12T09:18:04.150Z,19.16
2022-09-12T09:21:14.831Z,19.18
2022-09-12T09:24:21.992Z,19.18
2022-09-12T09:27:40.428Z,19.46
2022-09-12T09:30:45.102Z,19.41
2022-09-12T09:33:48.706Z,19.55
2022-09-12T09:36:52.116Z,19.83
2022-09-12T09:40:06.476Z,20.10
2022-09-12T09:43:20.212Z,20.15
2022-09-12T09:46:23.494Z,20.37
2022-09-12T09:49:27.009Z,20.19
2022-09-12T09:52:30.796Z,20.37
2022-09-12T09:55:39.912Z,20.32
2022-09-12T09:58:41.644Z,20.36
2022-09-12T10:01:51.602Z,20.52
2022-09-12T10:04:55.367Z,20.65
2022-09-12T10:07:57.052Z,20.77
2022-09-12T10:11:02.479Z,21.06
2022-09-12T10:14:04.635Z,20.95
2022-09-12T10:17:33.153Z,21.16
2022-09-12T10:20:39.476Z,20.94
2022-09-12T10:23:42.574Z,20.98
2022-09-12T10:26:51.384Z,21.12
2022-09-12T10:30:01.715Z,21.38
2022-09-12T10:33:11.487Z,21.62
2022-09-12T10:36:14.608Z,21.92
2022-09-12T10:39:19.280Z,21.87
2022-09-12T10:42:46.371Z,21.91
2022-09-12T10:45:48.024Z,21.77
2022-09-12T10:48:53.059Z,21.74
2022-09-12T10:51:56.452Z,21.82
2022-09-12T10:54:58.263Z,21.93
2022-09-12T10:58:13.811Z,21.88
2022-09-12T11:01:28.520Z,22.34
2022-09-12T11:04:46.217Z,22.93
2022-09-12T11:07:51.996Z,22.63
2022-09-12T11:10:59.798Z,22.77
2022-09-12T11:14:17.407Z,22.61
2022-09-12T11:17:34.307Z,22.59
2022-09-12T11:21:02.986Z,23.18
2022-09-12T11:24:29.375Z,23.37
2022-09-12T11:27:43.653Z,23.55
2022-09-12T11:31:04.726Z,23.57
2022-09-12T11:34:09.563Z,23.82
2022-09-12T11:37:33.949Z,23.84
2022-09-12T11:40:42.367Z,23.99
2022-09-12T11:43:48.848Z,23.94
2022-09-12T11:46:52.089Z,24.04
2022-09-12T11:49:55.588Z,24.14
2022-09-12T11:53:06.398Z,23.75
2022-09-12T11:56:13.756Z,23.67
2022-09-12T11:59:30.915Z,23.69
2022-09-12T12:02:39.388Z,24.08
2022-09-12T12:05:50.067Z,24.45
2022-09-12T12:08:53.641Z,24.19
2022-09-12T12:11:57.928Z,24.18
2022-09-12T12:15:00.487Z,24.50
2022-09-12T12:18:05.897Z,24.95
2022-09-12T12:21:32.306Z,24.80
2022-09-12T12:24:53.253Z,24.82
2022-09-12T12:27:56.686Z,24.94
2022-09-12T12:31:00.588Z,24.77
2022-09-12T12:34:27.485Z,24.85
2022-09-12T12:37:51.954Z,25.05
2022-09-12T12:41:33.410Z,24.71
2022-09-12T12:44:50.053Z,25.03
2022-09-12T12:47:53.710Z,25.22
2022-09-12T12:51:15.923Z,25.14
2022-09-12T12:54:30.219Z,25.05
2022-09-12T12:57:51.847Z,25.47
2022-09-12T13:01:05.889Z,25.88
2022-09-12T13:04:15.482Z,25.52
2022-09-12T13:07:26.828Z,24.74
2022-09-12T13:10:30.591Z,24.88
2022-09-12T13:13:38.609Z,24.82
2022-09-12T13:16:54.004Z,25.45
2022-09-12T13:20:29.718Z,25.60
2022-09-12T13:23:32.838Z,25.28
2022-09-12T13:26:40.323Z,26.15
2022-09-12T13:29:43.287Z,26.15
2022-09-12T13:32:44.988Z,26.40
2022-09-12T13:36:11.130Z,26.47
2022-09-12T13:39:19.647Z,25.72
2022-09-12T13:42:41.153Z,25.87
2022-09-12T13:45:46.420Z,25.74
2022-09-12T13:48:49.359Z,26.20
2022-09-12T13:52:01.144Z,25.96
2022-09-12T13:55:08.940Z,26.04
2022-09-12T13:58:19.109Z,26.05
2022-09-12T14:01:23.531Z,26.20
2022-09-12T14:04:45.127Z,25.91
2022-09-12T14:07:56.063Z,25.75
2022-09-12T14:10:58.331Z,26.04
2022-09-12T14:14:06.099Z,26.08
2022-09-12T14:17:18.969Z,26.00
2022-09-12T14:20:24.287Z,26.31
2022-09-12T14:23:28.935Z,26.43
2022-09-12T14:26:34.463Z,26.55
2022-09-12T14:29:36.138Z,26.81
2022-09-12T14:32:39.191Z,26.45
2022-09-12T14:35:43.797Z,26.53
2022-09-12T14:38:50.094Z,26.22
2022-09-12T14:42:02.290Z,26.48
2022-09-12T14:45:17.057Z,26.74
2022-09-12T14:48:20.262Z,26.43
2022-09-12T14:51:25.674Z,26.80
2022-09-12T14:54:39.359Z,26.12
2022-09-12T14:57:42.007Z,26.99
2022-09-12T15:00:58.542Z,26.73
2022-09-12T15:04:01.732Z,26.85
2022-09-12T15:07:14.644Z,26.76
2022-09-12T15:10:22.806Z,26.56
2022-09-12T15:13:25.950Z,26.24
2022-09-12T15:16:27.689Z,26.39
2022-09-12T15:19:30.974Z,26.38
2022-09-12T15:22:34.540Z,25.79
2022-09-12T15:25:36.417Z,26.23
2022-09-12T15:28:38.046Z,26.16
2022-09-12T15:31:40.325Z,26.37
2022-09-12T15:34:43.323Z,26.27
2022-09-12T15:37:45.166Z,25.72
2022-09-12T15:40:52.502Z,26.09
2022-09-12T15:43:54.171Z,26.12
2022-09-12T15:46:55.798Z,25.67
2022-09-12T15:49:58.781Z,25.78
2022-09-12T15:53:00.380Z,25.84
2022-09-12T15:56:02.456Z,25.45
2022-09-12T15:59:04.950Z,25.61
2022-09-12T16:02:06.871Z,25.55
2022-09-12T16:05:14.923Z,25.56
2022-09-12T16:08:16.601Z,25.49
2022-09-12T16:11:21.378Z,25.40
2022-09-12T16:14:23.156Z,25.20
2022-09-12T16:17:24.766Z,25.15
2022-09-12T16:20:27.738Z,25.13
2022-09-12T16:23:29.550Z,25.13
2022-09-12T16:26:31.209Z,24.60
2022-09-12T16:29:32.877Z,24.64
2022-09-12T16:32:34.765Z,24.60
2022-09-12T16:35:37.842Z,24.71
2022-09-12T16:38:43.219Z,24.78
2022-09-12T16:41:44.884Z,24.63
2022-09-12T16:44:46.996Z,24.75
2022-09-12T16:47:48.690Z,24.70
2022-09-12T16:50:57.422Z,24.38
2022-09-12T16:53:59.242Z,24.13
2022-09-12T16:57:00.945Z,24.03
2022-09-12T17:00:03.541Z,23.94
2022-09-12T17:03:05.161Z,23.65
2022-09-12T17:06:09.928Z,23.50
2022-09-12T17:09:13.090Z,23.30
2022-09-12T17:12:15.027Z,23.00
2022-09-12T17:15:16.642Z,22.94
2022-09-12T17:18:18.756Z,22.82
2022-09-12T17:21:21.998Z,22.70
2022-09-12T17:24:23.826Z,22.38
2022-09-12T17:27:25.451Z,22.22
2022-09-12T17:30:27.108Z,22.05
2022-09-12T17:33:29.796Z,22.05
2022-09-12T17:36:33.954Z,21.85
2022-09-12T17:39:35.465Z,21.66
2022-09-12T17:42:37.222Z,21.15
2022-09-12T17:45:39.275Z,20.90
2022-09-12T17:48:41.608Z,20.53
2022-09-12T17:51:45.342Z,20.26
2022-09-12T17:54:46.924Z,20.22
2022-09-12T17:57:49.059Z,20.26
2022-09-12T18:01:09.585Z,20.03
2022-09-12T18:04:11.478Z,19.79
2022-09-12T18:07:15.776Z,19.61
2022-09-12T18:10:17.341Z,19.63
2022-09-12T18:13:19.141Z,19.53
2022-09-12T18:16:20.983Z,19.47
2022-09-12T18:19:23.482Z,19.23
2022-09-12T18:22:26.494Z,19.10
2022-09-12T18:25:28.159Z,19.03
2022-09-12T18:28:32.214Z,18.92
2022-09-12T18:31:33.986Z,18.91
2022-09-12T18:34:35.711Z,18.98
2022-09-12T18:37:40.146Z,18.92
2022-09-12T18:40:41.622Z,18.87
2022-09-12T18:43:43.714Z,18.86
2022-09-12T18:46:45.549Z,18.88
2022-09-12T18:49:47.252Z,18.76
2022-09-12T18:52:51.680Z,18.84
2022-09-12T18:55:53.237Z,18.83
2022-09-12T18:58:56.335Z,18.55
2022-09-12T19:01:58.055Z,18.59
2022-09-12T19:04:59.765Z,18.51
2022-09-12T19:08:03.391Z,18.39
2022-09-12T19:11:05.662Z,18.14
2022-09-12T19:14:07.869Z,18.02
2022-09-12T19:17:10.054Z,18.21
2022-09-12T19:20:11.711Z,18.14
2022-09-12T19:23:14.703Z,18.11
2022-09-12T19:26:18.250Z,18.05
2022-09-12T19:29:19.930Z,17.95
2022-09-12T19:32:21.607Z,17.82
2022-09-12T19:35:23.242Z,17.85
2022-09-12T19:38:26.488Z,17.93
2022-09-12T19:41:28.714Z,17.91
2022-09-12T19:44:30.490Z,17.89
2022-09-12T19:47:32.140Z,17.86
2022-09-12T19:50:33.846Z,17.55
2022-09-12T19:53:38.228Z,17.62
2022-09-12T19:56:39.772Z,17.55
2022-09-12T19:59:41.412Z,17.52
2022-09-12T20:02:43.140Z,17.38
2022-09-12T20:05:44.845Z,17.34
2022-09-12T20:08:48.293Z,17.34
2022-09-12T20:11:50.460Z,17.21
2022-09-12T20:14:52.254Z,17.46
2022-09-12T20:17:55.003Z,17.49
2022-09-12T20:20:56.667Z,17.52
2022-09-12T20:24:01.830Z,17.55
2022-09-12T20:27:03.827Z,17.75
2022-09-12T20:30:06.697Z,17.75
2022-09-12T20:33:08.390Z,17.78
2022-09-12T20:36:12.877Z,17.56
2022-09-12T20:39:17.595Z,17.55
2022-09-12T20:42:19.314Z,17.42
2022-09-12T20:45:20.947Z,17.40
2022-09-12T20:48:22.608Z,17.46
2022-09-12T20:51:26.623Z,17.26
2022-09-12T20:54:29.655Z,17.61
2022-09-12T20:57:31.413Z,17.57
2022-09-12T21:00:33.069Z,17.29
2022-09-12T21:03:36.666Z,17.39
2022-09-12T21:06:38.271Z,18.02
2022-09-12T21:09:41.378Z,18.65
2022-09-12T21:12:43.006Z,18.63
2022-09-12T21:15:45.098Z,19.28
2022-09-12T21:18:47.593Z,19.60
2022-09-12T21:21:49.293Z,19.83
2022-09-12T21:24:52.323Z,20.08
2022-09-12T21:27:53.922Z,20.12
2022-09-12T21:30:55.935Z,20.33
2022-09-12T21:33:57.673Z,20.71
2022-09-12T21:36:59.291Z,20.78
2022-09-12T21:40:03.221Z,20.73
2022-09-12T21:43:08.138Z,21.17
2022-09-12T21:46:12.317Z,21.10
2022-09-12T21:49:14.029Z,20.97
2022-09-12T21:52:15.713Z,20.18
2022-09-12T21:55:19.477Z,19.46
2022-09-12T21:58:21.069Z,19.03
2022-09-12T22:01:22.779Z,18.55
2022-09-12T22:04:25.066Z,18.30
2022-09-12T22:07:26.772Z,18.41
2022-09-12T22:10:31.168Z,17.99
2022-09-12T22:13:33.652Z,17.71
2022-09-12T22:16:35.399Z,17.79
2022-09-12T22:19:37.265Z,17.62
2022-09-12T22:22:57.630Z,17.60
2022-09-12T22:26:02.179Z,17.50
2022-09-12T22:29:04.023Z,17.49
2022-09-12T22:32:05.637Z,17.36
2022-09-12T22:35:08.105Z,17.31
2022-09-12T22:38:09.783Z,17.21
2022-09-12T22:41:13.168Z,17.17
2022-09-12T22:44:14.937Z,17.37
2022-09-12T22:47:16.618Z,17.40
2022-09-12T22:50:18.250Z,17.01
2022-09-12T22:53:19.832Z,17.08
2022-09-12T22:56:23.279Z,17.04
2022-09-12T22:59:24.990Z,16.98
2022-09-12T23:02:26.621Z,16.97
2022-09-12T23:05:28.278Z,16.93
2022-09-12T23:08:30.119Z,16.76
2022-09-12T23:11:33.081Z,16.58
2022-09-12T23:14:34.800Z,16.34
2022-09-12T23:17:36.419Z,16.23
2022-09-12T23:20:38.015Z,16.23
2022-09-12T23:23:40.105Z,16.40
2022-09-12T23:26:43.173Z,16.03
2022-09-12T23:29:44.800Z,16.13
2022-09-12T23:32:46.545Z,16.21
2022-09-12T23:35:48.375Z,15.99
2022-09-12T23:38:50.142Z,15.99
2022-09-12T23:41:53.222Z,16.18
2022-09-12T23:44:54.841Z,16.10
2022-09-12T23:47:56.568Z,16.16
2022-09-12T23:50:58.207Z,16.14
2022-09-12T23:53:59.960Z,15.78
2022-09-12T23:57:03.036Z,15.89
